sensor_id;sensor_type;location;lat;lon;timestamp;temperature;humidity
57664;DHT22;43493;53.098;6.064;2022-11-13T00:00:55;7.00;99.90
57664;DHT22;43493;53.098;6.064;2022-11-13T00:03:21;7.00;99.90
57664;DHT22;43493;53.098;6.064;2022-11-13T00:05:47;7.10;99.90
57664;DHT22;43493;53.098;6.064;2022-11-13T00:08:13;7.00;99.90
57664;DHT22;43493;53.098;6.064;2022-11-13T00:10:39;7.00;99.90
57664;DHT22;43493;53.098;6.064;2022-11-13T00:13:05;7.00;99.90
57664;DHT22;43493;53.098;6.064;2022-11-13T00:15:31;7.00;99.90
57664;DHT22;43493;53.098;6.064;2022-11-13T00:18:00;7.00;99.90
57664;DHT22;43493;53.098;6.064;2022-11-13T00:20:26;7.00;99.90
57664;DHT22;43493;53.098;6.064;2022-11-13T00:22:52;7.00;99.90
57664;DHT22;43493;53.098;6.064;2022-11-13T00:25:18;7.10;99.90
57664;DHT22;43493;53.098;6.064;2022-11-13T00:27:43;7.00;99.90
57664;DHT22;43493;53.098;6.064;2022-11-13T00:30:09;7.00;99.90
57664;DHT22;43493;53.098;6.064;2022-11-13T00:32:35;7.00;99.90
57664;DHT22;43493;53.098;6.064;2022-11-13T00:35:03;7.00;99.90
57664;DHT22;43493;53.098;6.064;2022-11-13T00:37:29;7.00;99.90
57664;DHT22;43493;53.098;6.064;2022-11-13T00:39:54;7.00;99.90
57664;DHT22;43493;53.098;6.064;2022-11-13T00:42:20;7.00;99.90
57664;DHT22;43493;53.098;6.064;2022-11-13T00:44:46;7.10;99.90
57664;DHT22;43493;53.098;6.064;2022-11-13T00:47:11;7.10;99.90
57664;DHT22;43493;53.098;6.064;2022-11-13T00:49:37;7.10;99.90
57664;DHT22;43493;53.098;6.064;2022-11-13T00:52:03;7.00;99.90
57664;DHT22;43493;53.098;6.064;2022-11-13T00:54:29;7.00;99.90
57664;DHT22;43493;53.098;6.064;2022-11-13T00:56:54;7.00;99.90
57664;DHT22;43493;53.098;6.064;2022-11-13T00:59:20;6.90;99.90
57664;DHT22;43493;53.098;6.064;2022-11-13T01:01:45;7.00;99.90
57664;DHT22;43493;53.098;6.064;2022-11-13T01:04:11;7.00;99.90
57664;DHT22;43493;53.098;6.064;2022-11-13T01:06:37;7.00;99.90
57664;DHT22;43493;53.098;6.064;2022-11-13T01:09:03;7.00;99.90
57664;DHT22;43493;53.098;6.064;2022-11-13T01:11:29;7.00;99.90
57664;DHT22;43493;53.098;6.064;2022-11-13T01:13:55;7.00;99.90
57664;DHT22;43493;53.098;6.064;2022-11-13T01:16:24;7.00;99.90
57664;DHT22;43493;53.098;6.064;2022-11-13T01:18:53;7.00;99.90
57664;DHT22;43493;53.098;6.064;2022-11-13T01:21:25;7.00;99.90
57664;DHT22;43493;53.098;6.064;2022-11-13T01:23:51;7.00;99.90
57664;DHT22;43493;53.098;6.064;2022-11-13T01:26:27;7.00;99.90
57664;DHT22;43493;53.098;6.064;2022-11-13T01:28:53;7.00;99.90
57664;DHT22;43493;53.098;6.064;2022-11-13T01:31:24;7.00;99.90
57664;DHT22;43493;53.098;6.064;2022-11-13T01:33:50;7.00;99.90
57664;DHT22;43493;53.098;6.064;2022-11-13T01:36:20;7.10;99.90
57664;DHT22;43493;53.098;6.064;2022-11-13T01:38:46;7.10;99.90
57664;DHT22;43493;53.098;6.064;2022-11-13T01:41:17;7.10;99.90
57664;DHT22;43493;53.098;6.064;2022-11-13T01:43:43;7.10;99.90
57664;DHT22;43493;53.098;6.064;2022-11-13T01:46:46;7.10;99.90
57664;DHT22;43493;53.098;6.064;2022-11-13T01:51:40;7.10;99.90
57664;DHT22;43493;53.098;6.064;2022-11-13T01:54:11;7.10;99.90
57664;DHT22;43493;53.098;6.064;2022-11-13T01:56:39;7.20;99.90
57664;DHT22;43493;53.098;6.064;2022-11-13T02:01:35;7.20;99.90
57664;DHT22;43493;53.098;6.064;2022-11-13T02:04:00;7.20;99.90
57664;DHT22;43493;53.098;6.064;2022-11-13T02:06:32;7.20;99.90
57664;DHT22;43493;53.098;6.064;2022-11-13T02:09:00;7.20;99.90
57664;DHT22;43493;53.098;6.064;2022-11-13T02:11:26;7.20;99.90
57664;DHT22;43493;53.098;6.064;2022-11-13T02:13:52;7.20;99.90
57664;DHT22;43493;53.098;6.064;2022-11-13T02:16:18;7.20;99.90
57664;DHT22;43493;53.098;6.064;2022-11-13T02:18:44;7.20;99.90
57664;DHT22;43493;53.098;6.064;2022-11-13T02:24:39;7.30;99.90
57664;DHT22;43493;53.098;6.064;2022-11-13T02:26:44;7.30;99.90
57664;DHT22;43493;53.098;6.064;2022-11-13T02:29:10;7.20;99.90
57664;DHT22;43493;53.098;6.064;2022-11-13T02:31:36;7.30;99.90
57664;DHT22;43493;53.098;6.064;2022-11-13T02:34:02;7.30;99.90
57664;DHT22;43493;53.098;6.064;2022-11-13T02:36:29;7.30;99.90
57664;DHT22;43493;53.098;6.064;2022-11-13T02:38:57;7.20;99.90
57664;DHT22;43493;53.098;6.064;2022-11-13T02:41:23;7.30;99.90
57664;DHT22;43493;53.098;6.064;2022-11-13T02:43:49;7.30;99.90
57664;DHT22;43493;53.098;6.064;2022-11-13T02:46:15;7.20;99.90
57664;DHT22;43493;53.098;6.064;2022-11-13T02:48:40;7.30;99.90
57664;DHT22;43493;53.098;6.064;2022-11-13T02:51:06;7.20;99.90
57664;DHT22;43493;53.098;6.064;2022-11-13T02:53:32;7.20;99.90
57664;DHT22;43493;53.098;6.064;2022-11-13T02:55:58;7.20;99.90
57664;DHT22;43493;53.098;6.064;2022-11-13T02:58:23;7.20;99.90
57664;DHT22;43493;53.098;6.064;2022-11-13T03:00:49;7.20;99.90
57664;DHT22;43493;53.098;6.064;2022-11-13T03:03:15;7.10;99.90
57664;DHT22;43493;53.098;6.064;2022-11-13T03:05:40;7.10;99.90
57664;DHT22;43493;53.098;6.064;2022-11-13T03:08:06;7.10;99.90
57664;DHT22;43493;53.098;6.064;2022-11-13T03:10:32;7.20;99.90
57664;DHT22;43493;53.098;6.064;2022-11-13T03:12:58;7.20;99.90
57664;DHT22;43493;53.098;6.064;2022-11-13T03:15:23;7.20;99.90
57664;DHT22;43493;53.098;6.064;2022-11-13T03:17:49;7.20;99.90
57664;DHT22;43493;53.098;6.064;2022-11-13T03:20:16;7.20;99.90
57664;DHT22;43493;53.098;6.064;2022-11-13T03:22:41;7.20;99.90
57664;DHT22;43493;53.098;6.064;2022-11-13T03:25:07;7.10;99.90
57664;DHT22;43493;53.098;6.064;2022-11-13T03:27:33;7.20;99.90
57664;DHT22;43493;53.098;6.064;2022-11-13T03:29:58;7.20;99.90
57664;DHT22;43493;53.098;6.064;2022-11-13T03:32:24;7.20;99.90
57664;DHT22;43493;53.098;6.064;2022-11-13T03:34:50;7.20;99.90
57664;DHT22;43493;53.098;6.064;2022-11-13T03:37:15;7.20;99.90
57664;DHT22;43493;53.098;6.064;2022-11-13T03:39:41;7.20;99.90
57664;DHT22;43493;53.098;6.064;2022-11-13T03:42:07;7.20;99.90
57664;DHT22;43493;53.098;6.064;2022-11-13T03:44:32;7.20;99.90
57664;DHT22;43493;53.098;6.064;2022-11-13T03:46:58;7.20;99.90
57664;DHT22;43493;53.098;6.064;2022-11-13T03:49:24;7.20;99.90
57664;DHT22;43493;53.098;6.064;2022-11-13T03:51:49;7.20;99.90
57664;DHT22;43493;53.098;6.064;2022-11-13T03:54:15;7.20;99.90
57664;DHT22;43493;53.098;6.064;2022-11-13T03:56:41;7.20;99.90
57664;DHT22;43493;53.098;6.064;2022-11-13T03:59:06;7.20;99.90
57664;DHT22;43493;53.098;6.064;2022-11-13T04:01:32;7.20;99.90
57664;DHT22;43493;53.098;6.064;2022-11-13T04:03:58;7.20;99.90
57664;DHT22;43493;53.098;6.064;2022-11-13T04:06:23;7.20;99.90
57664;DHT22;43493;53.098;6.064;2022-11-13T04:08:49;7.20;99.90
57664;DHT22;43493;53.098;6.064;2022-11-13T04:11:15;7.20;99.90
57664;DHT22;43493;53.098;6.064;2022-11-13T04:13:40;7.30;99.90
57664;DHT22;43493;53.098;6.064;2022-11-13T04:16:06;7.20;99.90
57664;DHT22;43493;53.098;6.064;2022-11-13T04:18:32;7.20;99.90
57664;DHT22;43493;53.098;6.064;2022-11-13T04:21:03;7.30;99.90
57664;DHT22;43493;53.098;6.064;2022-11-13T04:23:29;7.30;99.90
57664;DHT22;43493;53.098;6.064;2022-11-13T04:25:55;7.30;99.90
57664;DHT22;43493;53.098;6.064;2022-11-13T04:28:21;7.30;99.90
57664;DHT22;43493;53.098;6.064;2022-11-13T04:30:47;7.20;99.90
57664;DHT22;43493;53.098;6.064;2022-11-13T04:33:12;7.30;99.90
57664;DHT22;43493;53.098;6.064;2022-11-13T04:35:38;7.20;99.90
57664;DHT22;43493;53.098;6.064;2022-11-13T04:38:06;7.20;99.90
57664;DHT22;43493;53.098;6.064;2022-11-13T04:40:32;7.20;99.90
57664;DHT22;43493;53.098;6.064;2022-11-13T04:42:58;7.20;99.90
57664;DHT22;43493;53.098;6.064;2022-11-13T04:45:24;7.20;99.90
57664;DHT22;43493;53.098;6.064;2022-11-13T04:47:53;7.10;99.90
57664;DHT22;43493;53.098;6.064;2022-11-13T04:50:18;7.20;99.90
57664;DHT22;43493;53.098;6.064;2022-11-13T04:52:44;7.20;99.90
57664;DHT22;43493;53.098;6.064;2022-11-13T04:55:11;7.20;99.90
57664;DHT22;43493;53.098;6.064;2022-11-13T04:57:37;7.20;99.90
57664;DHT22;43493;53.098;6.064;2022-11-13T05:00:05;7.20;99.90
57664;DHT22;43493;53.098;6.064;2022-11-13T05:02:31;7.20;99.90
57664;DHT22;43493;53.098;6.064;2022-11-13T05:04:57;7.20;99.90
57664;DHT22;43493;53.098;6.064;2022-11-13T05:07:23;7.20;99.90
57664;DHT22;43493;53.098;6.064;2022-11-13T05:09:51;7.30;99.90
57664;DHT22;43493;53.098;6.064;2022-11-13T05:12:16;7.30;99.90
57664;DHT22;43493;53.098;6.064;2022-11-13T05:14:42;7.30;99.90
57664;DHT22;43493;53.098;6.064;2022-11-13T05:17:09;7.30;99.90
57664;DHT22;43493;53.098;6.064;2022-11-13T05:19:36;7.30;99.90
57664;DHT22;43493;53.098;6.064;2022-11-13T05:22:02;7.30;99.90
57664;DHT22;43493;53.098;6.064;2022-11-13T05:24:28;7.30;99.90
57664;DHT22;43493;53.098;6.064;2022-11-13T05:26:54;7.30;99.90
57664;DHT22;43493;53.098;6.064;2022-11-13T05:29:20;7.30;99.90
57664;DHT22;43493;53.098;6.064;2022-11-13T05:31:46;7.30;99.90
57664;DHT22;43493;53.098;6.064;2022-11-13T05:34:12;7.30;99.90
57664;DHT22;43493;53.098;6.064;2022-11-13T05:36:37;7.20;99.90
57664;DHT22;43493;53.098;6.064;2022-11-13T05:39:03;7.20;99.90
57664;DHT22;43493;53.098;6.064;2022-11-13T05:41:29;7.20;99.90
57664;DHT22;43493;53.098;6.064;2022-11-13T05:43:56;7.20;99.90
57664;DHT22;43493;53.098;6.064;2022-11-13T05:46:24;7.20;99.90
57664;DHT22;43493;53.098;6.064;2022-11-13T05:48:58;7.10;99.90
57664;DHT22;43493;53.098;6.064;2022-11-13T05:51:27;7.10;99.90
57664;DHT22;43493;53.098;6.064;2022-11-13T05:53:53;7.10;99.90
57664;DHT22;43493;53.098;6.064;2022-11-13T05:56:31;7.10;99.90
57664;DHT22;43493;53.098;6.064;2022-11-13T05:58:58;7.10;99.90
57664;DHT22;43493;53.098;6.064;2022-11-13T06:01:25;7.10;99.90
57664;DHT22;43493;53.098;6.064;2022-11-13T06:03:53;7.10;99.90
57664;DHT22;43493;53.098;6.064;2022-11-13T06:06:20;7.10;99.90
57664;DHT22;43493;53.098;6.064;2022-11-13T06:08:47;7.10;99.90
57664;DHT22;43493;53.098;6.064;2022-11-13T06:11:16;7.00;99.90
57664;DHT22;43493;53.098;6.064;2022-11-13T06:13:42;7.00;99.90
57664;DHT22;43493;53.098;6.064;2022-11-13T06:16:14;7.00;99.90
57664;DHT22;43493;53.098;6.064;2022-11-13T06:18:41;7.00;99.90
57664;DHT22;43493;53.098;6.064;2022-11-13T06:21:10;7.00;99.90
57664;DHT22;43493;53.098;6.064;2022-11-13T06:23:37;6.90;99.90
57664;DHT22;43493;53.098;6.064;2022-11-13T06:26:06;6.90;99.90
57664;DHT22;43493;53.098;6.064;2022-11-13T06:28:33;7.00;99.90
57664;DHT22;43493;53.098;6.064;2022-11-13T06:31:10;7.00;99.90
57664;DHT22;43493;53.098;6.064;2022-11-13T06:33:38;6.90;99.90
57664;DHT22;43493;53.098;6.064;2022-11-13T06:36:05;6.90;99.90
57664;DHT22;43493;53.098;6.064;2022-11-13T06:38:33;7.00;99.90
57664;DHT22;43493;53.098;6.064;2022-11-13T06:40:59;6.90;99.90
57664;DHT22;43493;53.098;6.064;2022-11-13T06:43:25;6.90;99.90
57664;DHT22;43493;53.098;6.064;2022-11-13T06:45:51;6.90;99.90
57664;DHT22;43493;53.098;6.064;2022-11-13T06:48:17;6.90;99.90
57664;DHT22;43493;53.098;6.064;2022-11-13T06:50:42;6.90;99.90
57664;DHT22;43493;53.098;6.064;2022-11-13T06:53:08;6.80;99.90
57664;DHT22;43493;53.098;6.064;2022-11-13T06:55:34;6.80;99.90
57664;DHT22;43493;53.098;6.064;2022-11-13T06:57:59;6.80;99.90
57664;DHT22;43493;53.098;6.064;2022-11-13T07:00:25;6.80;99.90
57664;DHT22;43493;53.098;6.064;2022-11-13T07:02:51;6.70;99.90
57664;DHT22;43493;53.098;6.064;2022-11-13T07:05:17;6.70;99.90
57664;DHT22;43493;53.098;6.064;2022-11-13T07:07:42;6.70;99.90
57664;DHT22;43493;53.098;6.064;2022-11-13T07:10:08;6.70;99.90
57664;DHT22;43493;53.098;6.064;2022-11-13T07:12:34;6.70;99.90
57664;DHT22;43493;53.098;6.064;2022-11-13T07:15:00;6.70;99.90
57664;DHT22;43493;53.098;6.064;2022-11-13T07:17:27;6.70;99.90
57664;DHT22;43493;53.098;6.064;2022-11-13T07:19:53;6.70;99.90
57664;DHT22;43493;53.098;6.064;2022-11-13T07:22:19;6.60;99.90
57664;DHT22;43493;53.098;6.064;2022-11-13T07:24:44;6.70;99.90
57664;DHT22;43493;53.098;6.064;2022-11-13T07:27:10;6.60;99.90
57664;DHT22;43493;53.098;6.064;2022-11-13T07:29:36;6.70;99.90
57664;DHT22;43493;53.098;6.064;2022-11-13T07:32:04;6.60;99.90
57664;DHT22;43493;53.098;6.064;2022-11-13T07:34:29;6.70;99.90
57664;DHT22;43493;53.098;6.064;2022-11-13T07:36:55;6.70;99.90
57664;DHT22;43493;53.098;6.064;2022-11-13T07:39:21;6.70;99.90
57664;DHT22;43493;53.098;6.064;2022-11-13T07:41:47;6.70;99.90
57664;DHT22;43493;53.098;6.064;2022-11-13T07:44:12;6.80;99.90
57664;DHT22;43493;53.098;6.064;2022-11-13T07:46:38;6.80;99.90
57664;DHT22;43493;53.098;6.064;2022-11-13T07:49:04;6.80;99.90
57664;DHT22;43493;53.098;6.064;2022-11-13T07:51:30;6.80;99.90
57664;DHT22;43493;53.098;6.064;2022-11-13T07:53:56;6.90;99.90
57664;DHT22;43493;53.098;6.064;2022-11-13T07:56:21;7.00;99.90
57664;DHT22;43493;53.098;6.064;2022-11-13T07:58:48;7.00;99.90
57664;DHT22;43493;53.098;6.064;2022-11-13T08:01:14;7.00;99.90
57664;DHT22;43493;53.098;6.064;2022-11-13T08:03:39;7.10;99.90
57664;DHT22;43493;53.098;6.064;2022-11-13T08:06:06;7.10;99.90
57664;DHT22;43493;53.098;6.064;2022-11-13T08:08:33;7.20;99.90
57664;DHT22;43493;53.098;6.064;2022-11-13T08:11:06;7.10;99.90
57664;DHT22;43493;53.098;6.064;2022-11-13T08:13:33;7.30;99.90
57664;DHT22;43493;53.098;6.064;2022-11-13T08:16:00;7.40;99.90
57664;DHT22;43493;53.098;6.064;2022-11-13T08:18:30;7.40;99.90
57664;DHT22;43493;53.098;6.064;2022-11-13T08:20:59;7.50;99.90
57664;DHT22;43493;53.098;6.064;2022-11-13T08:23:24;7.60;99.90
57664;DHT22;43493;53.098;6.064;2022-11-13T08:25:50;7.60;99.90
57664;DHT22;43493;53.098;6.064;2022-11-13T08:28:16;7.70;99.90
57664;DHT22;43493;53.098;6.064;2022-11-13T08:30:43;7.80;99.90
57664;DHT22;43493;53.098;6.064;2022-11-13T08:33:09;7.80;99.90
57664;DHT22;43493;53.098;6.064;2022-11-13T08:35:34;7.90;99.90
57664;DHT22;43493;53.098;6.064;2022-11-13T08:38:02;7.90;99.90
57664;DHT22;43493;53.098;6.064;2022-11-13T08:40:27;8.00;99.90
57664;DHT22;43493;53.098;6.064;2022-11-13T08:43:01;8.10;99.90
57664;DHT22;43493;53.098;6.064;2022-11-13T08:45:27;8.20;99.90
57664;DHT22;43493;53.098;6.064;2022-11-13T08:47:53;8.20;99.90
57664;DHT22;43493;53.098;6.064;2022-11-13T08:50:23;8.30;99.90
57664;DHT22;43493;53.098;6.064;2022-11-13T08:52:56;8.40;99.90
57664;DHT22;43493;53.098;6.064;2022-11-13T08:55:22;8.50;99.90
57664;DHT22;43493;53.098;6.064;2022-11-13T08:57:48;8.50;99.90
57664;DHT22;43493;53.098;6.064;2022-11-13T09:00:14;8.60;99.90
57664;DHT22;43493;53.098;6.064;2022-11-13T09:02:40;8.60;99.90
57664;DHT22;43493;53.098;6.064;2022-11-13T09:05:06;8.70;99.90
57664;DHT22;43493;53.098;6.064;2022-11-13T09:07:32;8.80;99.90
57664;DHT22;43493;53.098;6.064;2022-11-13T09:09:58;8.80;99.90
57664;DHT22;43493;53.098;6.064;2022-11-13T09:12:23;8.90;99.90
57664;DHT22;43493;53.098;6.064;2022-11-13T09:14:49;9.00;99.90
57664;DHT22;43493;53.098;6.064;2022-11-13T09:17:16;9.00;99.90
57664;DHT22;43493;53.098;6.064;2022-11-13T09:19:41;9.10;99.90
57664;DHT22;43493;53.098;6.064;2022-11-13T09:22:07;9.20;99.90
57664;DHT22;43493;53.098;6.064;2022-11-13T09:24:33;9.20;99.90
57664;DHT22;43493;53.098;6.064;2022-11-13T09:26:59;9.30;99.90
57664;DHT22;43493;53.098;6.064;2022-11-13T09:29:25;9.40;99.90
57664;DHT22;43493;53.098;6.064;2022-11-13T09:31:53;9.40;99.90
57664;DHT22;43493;53.098;6.064;2022-11-13T09:34:19;9.50;99.90
57664;DHT22;43493;53.098;6.064;2022-11-13T09:36:45;9.50;99.90
57664;DHT22;43493;53.098;6.064;2022-11-13T09:39:11;9.50;99.90
57664;DHT22;43493;53.098;6.064;2022-11-13T09:44:53;9.60;99.90
57664;DHT22;43493;53.098;6.064;2022-11-13T09:47:27;9.60;99.90
57664;DHT22;43493;53.098;6.064;2022-11-13T09:52:43;9.70;99.90
57664;DHT22;43493;53.098;6.064;2022-11-13T09:55:18;9.80;99.90
57664;DHT22;43493;53.098;6.064;2022-11-13T09:58:19;9.90;99.90
57664;DHT22;43493;53.098;6.064;2022-11-13T10:00:47;9.90;99.90
57664;DHT22;43493;53.098;6.064;2022-11-13T10:03:29;10.00;99.90
57664;DHT22;43493;53.098;6.064;2022-11-13T10:06:05;10.00;99.90
57664;DHT22;43493;53.098;6.064;2022-11-13T10:08:51;10.10;99.90
57664;DHT22;43493;53.098;6.064;2022-11-13T10:11:36;10.10;99.90
57664;DHT22;43493;53.098;6.064;2022-11-13T10:14:23;10.20;99.90
57664;DHT22;43493;53.098;6.064;2022-11-13T10:22:36;10.40;99.90
57664;DHT22;43493;53.098;6.064;2022-11-13T10:25:14;10.50;99.90
57664;DHT22;43493;53.098;6.064;2022-11-13T10:27:40;10.50;99.90
57664;DHT22;43493;53.098;6.064;2022-11-13T10:30:14;10.60;99.90
57664;DHT22;43493;53.098;6.064;2022-11-13T10:32:40;10.60;99.90
57664;DHT22;43493;53.098;6.064;2022-11-13T10:37:54;10.70;99.90
57664;DHT22;43493;53.098;6.064;2022-11-13T10:40:27;10.70;99.90
57664;DHT22;43493;53.098;6.064;2022-11-13T10:42:53;10.80;99.90
57664;DHT22;43493;53.098;6.064;2022-11-13T10:45:20;10.80;99.90
57664;DHT22;43493;53.098;6.064;2022-11-13T10:47:50;10.90;99.90
57664;DHT22;43493;53.098;6.064;2022-11-13T10:50:26;10.90;99.90
57664;DHT22;43493;53.098;6.064;2022-11-13T10:52:53;11.00;99.90
57664;DHT22;43493;53.098;6.064;2022-11-13T10:57:58;11.10;99.90
57664;DHT22;43493;53.098;6.064;2022-11-13T11:00:30;11.20;99.90
57664;DHT22;43493;53.098;6.064;2022-11-13T11:02:56;11.30;99.90
57664;DHT22;43493;53.098;6.064;2022-11-13T11:05:24;11.30;99.90
57664;DHT22;43493;53.098;6.064;2022-11-13T11:07:50;11.30;99.90
57664;DHT22;43493;53.098;6.064;2022-11-13T11:10:25;11.40;99.90
57664;DHT22;43493;53.098;6.064;2022-11-13T11:13:18;11.40;99.90
57664;DHT22;43493;53.098;6.064;2022-11-13T11:15:57;11.50;99.90
57664;DHT22;43493;53.098;6.064;2022-11-13T11:18:38;11.50;99.90
57664;DHT22;43493;53.098;6.064;2022-11-13T11:21:08;11.60;99.90
57664;DHT22;43493;53.098;6.064;2022-11-13T11:24:06;11.70;99.90
57664;DHT22;43493;53.098;6.064;2022-11-13T11:27:11;11.80;99.90
57664;DHT22;43493;53.098;6.064;2022-11-13T11:29:50;11.80;99.90
57664;DHT22;43493;53.098;6.064;2022-11-13T11:32:35;11.90;99.90
57664;DHT22;43493;53.098;6.064;2022-11-13T11:38:18;12.00;99.90
57664;DHT22;43493;53.098;6.064;2022-11-13T11:40:51;12.00;99.90
57664;DHT22;43493;53.098;6.064;2022-11-13T11:46:08;12.00;99.90
57664;DHT22;43493;53.098;6.064;2022-11-13T11:48:34;12.00;99.90
57664;DHT22;43493;53.098;6.064;2022-11-13T11:59:03;12.20;99.90
57664;DHT22;43493;53.098;6.064;2022-11-13T12:09:24;12.40;99.90
57664;DHT22;43493;53.098;6.064;2022-11-13T12:12:24;12.50;99.90
57664;DHT22;43493;53.098;6.064;2022-11-13T12:17:47;12.60;99.90
57664;DHT22;43493;53.098;6.064;2022-11-13T12:20:35;12.50;99.90
57664;DHT22;43493;53.098;6.064;2022-11-13T12:23:20;12.60;99.90
57664;DHT22;43493;53.098;6.064;2022-11-13T12:26:17;12.60;99.90
57664;DHT22;43493;53.098;6.064;2022-11-13T12:28:52;12.60;99.90
57664;DHT22;43493;53.098;6.064;2022-11-13T12:34:47;12.70;99.90
57664;DHT22;43493;53.098;6.064;2022-11-13T12:37:20;12.70;99.90
57664;DHT22;43493;53.098;6.064;2022-11-13T12:39:59;12.70;99.90
57664;DHT22;43493;53.098;6.064;2022-11-13T12:42:47;12.80;99.90
57664;DHT22;43493;53.098;6.064;2022-11-13T12:45:47;12.80;99.90
57664;DHT22;43493;53.098;6.064;2022-11-13T12:50:42;12.90;99.90
57664;DHT22;43493;53.098;6.064;2022-11-13T12:55:53;12.90;99.90
57664;DHT22;43493;53.098;6.064;2022-11-13T12:58:24;13.00;99.90
57664;DHT22;43493;53.098;6.064;2022-11-13T13:00:59;12.90;99.90
57664;DHT22;43493;53.098;6.064;2022-11-13T13:03:43;13.00;99.90
57664;DHT22;43493;53.098;6.064;2022-11-13T13:11:40;12.90;99.90
57664;DHT22;43493;53.098;6.064;2022-11-13T13:19:39;12.90;99.90
57664;DHT22;43493;53.098;6.064;2022-11-13T13:22:28;12.90;99.90
57664;DHT22;43493;53.098;6.064;2022-11-13T13:25:19;12.90;99.90
57664;DHT22;43493;53.098;6.064;2022-11-13T13:27:59;12.90;99.90
57664;DHT22;43493;53.098;6.064;2022-11-13T13:30:26;13.10;99.90
57664;DHT22;43493;53.098;6.064;2022-11-13T13:36:19;12.90;99.90
57664;DHT22;43493;53.098;6.064;2022-11-13T13:39:03;12.90;99.90
57664;DHT22;43493;53.098;6.064;2022-11-13T13:42:04;12.90;99.90
57664;DHT22;43493;53.098;6.064;2022-11-13T13:47:25;13.00;99.90
57664;DHT22;43493;53.098;6.064;2022-11-13T13:49:53;13.00;99.90
57664;DHT22;43493;53.098;6.064;2022-11-13T13:52:25;12.90;99.90
57664;DHT22;43493;53.098;6.064;2022-11-13T13:54:52;12.90;99.90
57664;DHT22;43493;53.098;6.064;2022-11-13T13:57:17;12.90;99.90
57664;DHT22;43493;53.098;6.064;2022-11-13T13:59:43;12.90;99.90
57664;DHT22;43493;53.098;6.064;2022-11-13T14:02:18;12.80;99.90
57664;DHT22;43493;53.098;6.064;2022-11-13T14:04:46;12.80;99.90
57664;DHT22;43493;53.098;6.064;2022-11-13T14:09:44;12.80;99.90
57664;DHT22;43493;53.098;6.064;2022-11-13T14:12:20;12.90;99.90
57664;DHT22;43493;53.098;6.064;2022-11-13T14:14:47;12.80;99.90
57664;DHT22;43493;53.098;6.064;2022-11-13T14:17:21;12.80;99.90
57664;DHT22;43493;53.098;6.064;2022-11-13T14:19:53;12.80;99.90
57664;DHT22;43493;53.098;6.064;2022-11-13T14:22:19;12.70;99.90
57664;DHT22;43493;53.098;6.064;2022-11-13T14:24:52;12.80;99.90
57664;DHT22;43493;53.098;6.064;2022-11-13T14:27:24;12.70;99.90
57664;DHT22;43493;53.098;6.064;2022-11-13T14:29:56;12.70;99.90
57664;DHT22;43493;53.098;6.064;2022-11-13T14:32:32;12.70;99.90
57664;DHT22;43493;53.098;6.064;2022-11-13T14:35:01;12.70;99.90
57664;DHT22;43493;53.098;6.064;2022-11-13T14:37:38;12.70;99.90
57664;DHT22;43493;53.098;6.064;2022-11-13T14:40:21;12.70;99.90
57664;DHT22;43493;53.098;6.064;2022-11-13T14:42:54;12.70;99.90
57664;DHT22;43493;53.098;6.064;2022-11-13T14:45:30;12.70;99.90
57664;DHT22;43493;53.098;6.064;2022-11-13T14:50:56;12.70;99.90
57664;DHT22;43493;53.098;6.064;2022-11-13T14:53:28;12.70;99.90
57664;DHT22;43493;53.098;6.064;2022-11-13T14:55:56;12.70;99.90
57664;DHT22;43493;53.098;6.064;2022-11-13T14:58:43;12.70;99.90
57664;DHT22;43493;53.098;6.064;2022-11-13T15:01:13;12.60;99.90
57664;DHT22;43493;53.098;6.064;2022-11-13T15:03:40;12.60;99.90
57664;DHT22;43493;53.098;6.064;2022-11-13T15:06:23;12.50;99.90
57664;DHT22;43493;53.098;6.064;2022-11-13T15:08:53;12.40;99.90
57664;DHT22;43493;53.098;6.064;2022-11-13T15:11:21;12.40;99.90
57664;DHT22;43493;53.098;6.064;2022-11-13T15:13:47;12.30;99.90
57664;DHT22;43493;53.098;6.064;2022-11-13T15:16:26;12.30;99.90
57664;DHT22;43493;53.098;6.064;2022-11-13T15:19:00;12.20;99.90
57664;DHT22;43493;53.098;6.064;2022-11-13T15:21:27;12.10;99.90
57664;DHT22;43493;53.098;6.064;2022-11-13T15:23:53;12.10;99.90
57664;DHT22;43493;53.098;6.064;2022-11-13T15:26:19;12.00;99.90
57664;DHT22;43493;53.098;6.064;2022-11-13T15:28:45;12.00;99.90
57664;DHT22;43493;53.098;6.064;2022-11-13T15:31:28;11.90;99.90
57664;DHT22;43493;53.098;6.064;2022-11-13T15:33:54;11.80;99.90
57664;DHT22;43493;53.098;6.064;2022-11-13T15:36:20;11.80;99.90
57664;DHT22;43493;53.098;6.064;2022-11-13T15:38:46;11.70;99.90
57664;DHT22;43493;53.098;6.064;2022-11-13T15:41:17;11.60;99.90
57664;DHT22;43493;53.098;6.064;2022-11-13T15:43:50;11.60;99.90
57664;DHT22;43493;53.098;6.064;2022-11-13T15:46:18;11.50;99.90
57664;DHT22;43493;53.098;6.064;2022-11-13T15:48:44;11.50;99.90
57664;DHT22;43493;53.098;6.064;2022-11-13T15:51:38;11.40;99.90
57664;DHT22;43493;53.098;6.064;2022-11-13T15:54:14;11.40;99.90
57664;DHT22;43493;53.098;6.064;2022-11-13T15:56:41;11.30;99.90
57664;DHT22;43493;53.098;6.064;2022-11-13T15:59:10;11.30;99.90
57664;DHT22;43493;53.098;6.064;2022-11-13T16:01:37;11.20;99.90
57664;DHT22;43493;53.098;6.064;2022-11-13T16:04:03;11.10;99.90
57664;DHT22;43493;53.098;6.064;2022-11-13T16:06:30;11.10;99.90
57664;DHT22;43493;53.098;6.064;2022-11-13T16:09:02;11.10;99.90
57664;DHT22;43493;53.098;6.064;2022-11-13T16:11:32;11.00;99.90
57664;DHT22;43493;53.098;6.064;2022-11-13T16:13:58;11.00;99.90
57664;DHT22;43493;53.098;6.064;2022-11-13T16:16:27;10.90;99.90
57664;DHT22;43493;53.098;6.064;2022-11-13T16:18:54;10.90;99.90
57664;DHT22;43493;53.098;6.064;2022-11-13T16:21:20;10.80;99.90
57664;DHT22;43493;53.098;6.064;2022-11-13T16:23:47;10.80;99.90
57664;DHT22;43493;53.098;6.064;2022-11-13T16:26:16;10.70;99.90
57664;DHT22;43493;53.098;6.064;2022-11-13T16:28:42;10.70;99.90
57664;DHT22;43493;53.098;6.064;2022-11-13T16:31:08;10.60;99.90
57664;DHT22;43493;53.098;6.064;2022-11-13T16:33:34;10.60;99.90
57664;DHT22;43493;53.098;6.064;2022-11-13T16:36:00;10.60;99.90
57664;DHT22;43493;53.098;6.064;2022-11-13T16:38:25;10.50;99.90
57664;DHT22;43493;53.098;6.064;2022-11-13T16:40:51;10.50;99.90
57664;DHT22;43493;53.098;6.064;2022-11-13T16:43:17;10.50;99.90
57664;DHT22;43493;53.098;6.064;2022-11-13T16:45:42;10.40;99.90
57664;DHT22;43493;53.098;6.064;2022-11-13T16:48:13;10.40;99.90
57664;DHT22;43493;53.098;6.064;2022-11-13T16:50:39;10.40;99.90
57664;DHT22;43493;53.098;6.064;2022-11-13T16:53:06;10.30;99.90
57664;DHT22;43493;53.098;6.064;2022-11-13T16:55:33;10.30;99.90
57664;DHT22;43493;53.098;6.064;2022-11-13T16:57:59;10.30;99.90
57664;DHT22;43493;53.098;6.064;2022-11-13T17:00:25;10.30;99.90
57664;DHT22;43493;53.098;6.064;2022-11-13T17:02:52;10.20;99.90
57664;DHT22;43493;53.098;6.064;2022-11-13T17:05:20;10.20;99.90
57664;DHT22;43493;53.098;6.064;2022-11-13T17:07:46;10.10;99.90
57664;DHT22;43493;53.098;6.064;2022-11-13T17:10:14;10.10;99.90
57664;DHT22;43493;53.098;6.064;2022-11-13T17:12:40;10.10;99.90